sensor_id;sensor_type;location;lat;lon;timestamp;pressure;altitude;pressure_sealevel;temperature;humidity
16094;BME280;8151;47.824;12.092;2022-12-20T00:01:33;97028.84;;;0.34;86.86
16094;BME280;8151;47.824;12.092;2022-12-20T00:04:03;97025.66;;;0.29;86.98
16094;BME280;8151;47.824;12.092;2022-12-20T00:06:33;97017.31;;;0.24;87.32
16094;BME280;8151;47.824;12.092;2022-12-20T00:09:03;97016.72;;;0.18;87.16
16094;BME280;8151;47.824;12.092;2022-12-20T00:11:33;97012.78;;;0.11;86.92
16094;BME280;8151;47.824;12.092;2022-12-20T00:14:03;97010.81;;;0.01;87.33
16094;BME280;8151;47.824;12.092;2022-12-20T00:16:32;97017.00;;;-0.02;87.53
16094;BME280;8151;47.824;12.092;2022-12-20T00:19:02;97021.47;;;-0.04;87.44
16094;BME280;8151;47.824;12.092;2022-12-20T00:21:31;97024.25;;;-0.07;87.33
16094;BME280;8151;47.824;12.092;2022-12-20T00:24:00;97028.44;;;-0.21;87.37
16094;BME280;8151;47.824;12.092;2022-12-20T00:26:31;97033.81;;;-0.24;87.48
16094;BME280;8151;47.824;12.092;2022-12-20T00:29:00;97035.66;;;-0.26;87.73
16094;BME280;8151;47.824;12.092;2022-12-20T00:31:30;97032.31;;;-0.28;87.46
16094;BME280;8151;47.824;12.092;2022-12-20T00:33:59;97022.75;;;-0.27;87.51
16094;BME280;8151;47.824;12.092;2022-12-20T00:36:29;97016.34;;;-0.22;87.25
16094;BME280;8151;47.824;12.092;2022-12-20T00:38:59;97025.84;;;-0.21;87.15
16094;BME280;8151;47.824;12.092;2022-12-20T00:41:29;97013.94;;;-0.25;87.05
16094;BME280;8151;47.824;12.092;2022-12-20T00:43:58;97012.19;;;-0.24;86.91
16094;BME280;8151;47.824;12.092;2022-12-20T00:46:26;97010.31;;;-0.22;86.77
16094;BME280;8151;47.824;12.092;2022-12-20T00:48:56;97009.97;;;-0.16;86.64
16094;BME280;8151;47.824;12.092;2022-12-20T00:51:26;97011.31;;;-0.09;86.57
16094;BME280;8151;47.824;12.092;2022-12-20T00:53:55;97016.09;;;-0.01;86.37
16094;BME280;8151;47.824;12.092;2022-12-20T00:56:24;97009.63;;;0.06;86.30
16094;BME280;8151;47.824;12.092;2022-12-20T00:58:52;97008.31;;;0.13;86.34
16094;BME280;8151;47.824;12.092;2022-12-20T01:01:23;97016.63;;;0.20;86.35
16094;BME280;8151;47.824;12.092;2022-12-20T01:03:53;97011.16;;;0.25;86.41
16094;BME280;8151;47.824;12.092;2022-12-20T01:06:23;97012.56;;;0.30;86.01
16094;BME280;8151;47.824;12.092;2022-12-20T01:08:53;97020.09;;;0.35;85.84
16094;BME280;8151;47.824;12.092;2022-12-20T01:11:22;97017.69;;;0.32;86.37
16094;BME280;8151;47.824;12.092;2022-12-20T01:13:53;97017.47;;;0.21;86.61
16094;BME280;8151;47.824;12.092;2022-12-20T01:16:24;97016.31;;;0.10;86.61
16094;BME280;8151;47.824;12.092;2022-12-20T01:18:54;97017.66;;;0.02;87.14
16094;BME280;8151;47.824;12.092;2022-12-20T01:21:25;97014.75;;;-0.08;87.13
16094;BME280;8151;47.824;12.092;2022-12-20T01:23:54;97025.34;;;-0.11;87.56
16094;BME280;8151;47.824;12.092;2022-12-20T01:26:25;97018.28;;;-0.09;87.65
16094;BME280;8151;47.824;12.092;2022-12-20T01:28:55;97025.06;;;-0.07;87.33
16094;BME280;8151;47.824;12.092;2022-12-20T01:31:24;97017.94;;;-0.03;87.41
16094;BME280;8151;47.824;12.092;2022-12-20T01:33:53;97023.91;;;-0.01;87.13
16094;BME280;8151;47.824;12.092;2022-12-20T01:36:26;97020.47;;;-0.02;87.43
16094;BME280;8151;47.824;12.092;2022-12-20T01:38:56;97014.69;;;-0.07;87.45
16094;BME280;8151;47.824;12.092;2022-12-20T01:41:25;97014.84;;;-0.10;87.20
16094;BME280;8151;47.824;12.092;2022-12-20T01:43:56;97005.72;;;-0.17;87.48
16094;BME280;8151;47.824;12.092;2022-12-20T01:46:26;97009.66;;;-0.26;87.26
16094;BME280;8151;47.824;12.092;2022-12-20T01:48:58;97011.50;;;-0.28;87.59
16094;BME280;8151;47.824;12.092;2022-12-20T01:51:31;97014.72;;;-0.38;87.48
16094;BME280;8151;47.824;12.092;2022-12-20T01:54:05;96990.47;;;-0.39;87.60
16094;BME280;8151;47.824;12.092;2022-12-20T01:56:35;96998.94;;;-0.35;87.58
16094;BME280;8151;47.824;12.092;2022-12-20T01:59:04;96995.34;;;-0.33;87.41
16094;BME280;8151;47.824;12.092;2022-12-20T02:01:33;96989.94;;;-0.30;87.14
16094;BME280;8151;47.824;12.092;2022-12-20T02:04:02;96986.44;;;-0.29;87.07
16094;BME280;8151;47.824;12.092;2022-12-20T02:06:32;96979.41;;;-0.27;87.16
16094;BME280;8151;47.824;12.092;2022-12-20T02:09:02;96973.25;;;-0.26;87.14
16094;BME280;8151;47.824;12.092;2022-12-20T02:11:44;96979.19;;;-0.24;87.19
16094;BME280;8151;47.824;12.092;2022-12-20T02:14:21;96974.00;;;-0.24;86.78
16094;BME280;8151;47.824;12.092;2022-12-20T02:17:02;96982.75;;;-0.25;86.93
16094;BME280;8151;47.824;12.092;2022-12-20T02:19:59;96980.66;;;-0.34;86.62
16094;BME280;8151;47.824;12.092;2022-12-20T02:22:49;96993.00;;;-0.53;87.07
16094;BME280;8151;47.824;12.092;2022-12-20T02:25:41;96990.66;;;-0.58;87.33
16094;BME280;8151;47.824;12.092;2022-12-20T02:28:22;96973.44;;;-0.61;87.37
16094;BME280;8151;47.824;12.092;2022-12-20T02:30:57;96980.34;;;-0.60;87.09
16094;BME280;8151;47.824;12.092;2022-12-20T02:33:28;96970.84;;;-0.61;87.36
16094;BME280;8151;47.824;12.092;2022-12-20T02:35:57;96975.72;;;-0.54;87.25
16094;BME280;8151;47.824;12.092;2022-12-20T02:38:29;96965.91;;;-0.49;87.23
16094;BME280;8151;47.824;12.092;2022-12-20T02:41:01;96974.28;;;-0.44;86.75
16094;BME280;8151;47.824;12.092;2022-12-20T02:43:31;96965.41;;;-0.40;86.81
16094;BME280;8151;47.824;12.092;2022-12-20T02:46:30;96961.03;;;-0.40;86.86
16094;BME280;8151;47.824;12.092;2022-12-20T02:49:01;96961.09;;;-0.41;86.63
16094;BME280;8151;47.824;12.092;2022-12-20T02:51:31;96967.06;;;-0.39;86.85
16094;BME280;8151;47.824;12.092;2022-12-20T02:54:00;96960.88;;;-0.36;86.92
16094;BME280;8151;47.824;12.092;2022-12-20T02:56:33;96964.88;;;-0.31;86.56
16094;BME280;8151;47.824;12.092;2022-12-20T02:59:07;96968.25;;;-0.29;86.36
16094;BME280;8151;47.824;12.092;2022-12-20T03:01:41;96963.03;;;-0.29;86.51
16094;BME280;8151;47.824;12.092;2022-12-20T03:04:12;96965.63;;;-0.29;86.76
16094;BME280;8151;47.824;12.092;2022-12-20T03:06:55;96961.19;;;-0.27;86.58
16094;BME280;8151;47.824;12.092;2022-12-20T03:09:23;96964.63;;;-0.26;86.60
16094;BME280;8151;47.824;12.092;2022-12-20T03:11:52;96971.50;;;-0.25;86.37
16094;BME280;8151;47.824;12.092;2022-12-20T03:14:21;96970.50;;;-0.23;86.72
16094;BME280;8151;47.824;12.092;2022-12-20T03:16:52;96972.34;;;-0.25;86.81
16094;BME280;8151;47.824;12.092;2022-12-20T03:19:21;96968.06;;;-0.26;86.46
16094;BME280;8151;47.824;12.092;2022-12-20T03:21:50;96967.31;;;-0.28;86.78
16094;BME280;8151;47.824;12.092;2022-12-20T03:24:19;96960.16;;;-0.24;86.68
16094;BME280;8151;47.824;12.092;2022-12-20T03:26:47;96964.34;;;-0.22;86.68
16094;BME280;8151;47.824;12.092;2022-12-20T03:29:15;96964.28;;;-0.20;86.98
16094;BME280;8151;47.824;12.092;2022-12-20T03:31:44;96952.09;;;-0.20;86.45
16094;BME280;8151;47.824;12.092;2022-12-20T03:34:13;96937.44;;;-0.21;86.95
16094;BME280;8151;47.824;12.092;2022-12-20T03:36:42;96926.09;;;-0.20;86.59
16094;BME280;8151;47.824;12.092;2022-12-20T03:39:10;96935.56;;;-0.18;86.74
16094;BME280;8151;47.824;12.092;2022-12-20T03:41:39;96943.97;;;-0.13;86.54
16094;BME280;8151;47.824;12.092;2022-12-20T03:44:07;96950.75;;;-0.11;86.71
16094;BME280;8151;47.824;12.092;2022-12-20T03:46:35;96957.59;;;-0.10;86.42
16094;BME280;8151;47.824;12.092;2022-12-20T03:49:04;96961.16;;;-0.11;86.81
16094;BME280;8151;47.824;12.092;2022-12-20T03:51:34;96968.00;;;-0.10;86.55
16094;BME280;8151;47.824;12.092;2022-12-20T03:54:02;96973.41;;;-0.13;86.72
16094;BME280;8151;47.824;12.092;2022-12-20T03:56:30;96964.78;;;-0.13;86.88
16094;BME280;8151;47.824;12.092;2022-12-20T03:58:59;96965.53;;;-0.11;86.83
16094;BME280;8151;47.824;12.092;2022-12-20T04:01:28;96961.91;;;-0.09;87.05
16094;BME280;8151;47.824;12.092;2022-12-20T04:03:56;96945.28;;;-0.06;86.83
16094;BME280;8151;47.824;12.092;2022-12-20T04:06:25;96947.88;;;-0.06;87.01
16094;BME280;8151;47.824;12.092;2022-12-20T04:08:55;96949.56;;;-0.05;86.76
16094;BME280;8151;47.824;12.092;2022-12-20T04:11:23;96950.47;;;-0.06;86.89
16094;BME280;8151;47.824;12.092;2022-12-20T04:13:52;96945.38;;;-0.08;87.01
16094;BME280;8151;47.824;12.092;2022-12-20T04:16:23;96932.47;;;-0.09;86.83
16094;BME280;8151;47.824;12.092;2022-12-20T04:18:52;96935.06;;;-0.09;86.81
16094;BME280;8151;47.824;12.092;2022-12-20T04:21:21;96915.44;;;-0.15;86.81
16094;BME280;8151;47.824;12.092;2022-12-20T04:23:50;96918.41;;;-0.21;86.81
16094;BME280;8151;47.824;12.092;2022-12-20T04:26:20;96912.34;;;-0.22;87.23
16094;BME280;8151;47.824;12.092;2022-12-20T04:28:48;96905.19;;;-0.18;87.05
16094;BME280;8151;47.824;12.092;2022-12-20T04:31:17;96920.13;;;-0.06;86.79
16094;BME280;8151;47.824;12.092;2022-12-20T04:33:50;96914.09;;;0.08;86.77
16094;BME280;8151;47.824;12.092;2022-12-20T04:36:19;96910.69;;;0.22;86.56
16094;BME280;8151;47.824;12.092;2022-12-20T04:38:48;96918.69;;;0.33;86.13
16094;BME280;8151;47.824;12.092;2022-12-20T04:41:16;96918.34;;;0.39;86.26
16094;BME280;8151;47.824;12.092;2022-12-20T04:43:52;96933.66;;;0.44;86.00
16094;BME280;8151;47.824;12.092;2022-12-20T04:46:21;96930.81;;;0.49;86.02
16094;BME280;8151;47.824;12.092;2022-12-20T04:48:51;96929.31;;;0.45;86.53
16094;BME280;8151;47.824;12.092;2022-12-20T04:51:28;96924.00;;;0.32;86.68
16094;BME280;8151;47.824;12.092;2022-12-20T04:53:56;96931.41;;;0.24;86.89
16094;BME280;8151;47.824;12.092;2022-12-20T04:56:25;96926.00;;;0.12;87.25
16094;BME280;8151;47.824;12.092;2022-12-20T04:58:57;96931.66;;;0.05;87.48
16094;BME280;8151;47.824;12.092;2022-12-20T05:01:25;96921.53;;;0.00;88.03
16094;BME280;8151;47.824;12.092;2022-12-20T05:03:54;96924.13;;;0.00;88.16
16094;BME280;8151;47.824;12.092;2022-12-20T05:06:23;96928.38;;;0.01;87.73
16094;BME280;8151;47.824;12.092;2022-12-20T05:08:52;96932.09;;;-0.03;87.58
16094;BME280;8151;47.824;12.092;2022-12-20T05:11:21;96929.13;;;-0.11;87.41
16094;BME280;8151;47.824;12.092;2022-12-20T05:13:49;96929.13;;;-0.27;87.70
16094;BME280;8151;47.824;12.092;2022-12-20T05:16:19;96918.75;;;-0.43;88.17
16094;BME280;8151;47.824;12.092;2022-12-20T05:18:47;96922.22;;;-0.43;88.26
16094;BME280;8151;47.824;12.092;2022-12-20T05:21:16;96912.31;;;-0.36;88.02
16094;BME280;8151;47.824;12.092;2022-12-20T05:24:03;96911.03;;;-0.29;87.79
16094;BME280;8151;47.824;12.092;2022-12-20T05:26:49;96910.69;;;-0.23;87.59
16094;BME280;8151;47.824;12.092;2022-12-20T05:29:18;96895.53;;;-0.16;87.67
16094;BME280;8151;47.824;12.092;2022-12-20T05:31:47;96889.16;;;-0.10;87.34
16094;BME280;8151;47.824;12.092;2022-12-20T05:34:16;96879.41;;;-0.07;87.14
16094;BME280;8151;47.824;12.092;2022-12-20T05:36:44;96885.09;;;0.00;87.29
16094;BME280;8151;47.824;12.092;2022-12-20T05:39:13;96882.03;;;0.08;87.14
16094;BME280;8151;47.824;12.092;2022-12-20T05:41:41;96870.06;;;0.19;86.95
16094;BME280;8151;47.824;12.092;2022-12-20T05:44:10;96879.84;;;0.30;86.97
16094;BME280;8151;47.824;12.092;2022-12-20T05:46:38;96879.47;;;0.36;86.61
16094;BME280;8151;47.824;12.092;2022-12-20T05:49:08;96864.50;;;0.40;86.80
16094;BME280;8151;47.824;12.092;2022-12-20T05:51:36;96867.75;;;0.44;86.99
16094;BME280;8151;47.824;12.092;2022-12-20T05:54:04;96868.41;;;0.47;86.69
16094;BME280;8151;47.824;12.092;2022-12-20T05:56:33;96866.25;;;0.54;86.70
16094;BME280;8151;47.824;12.092;2022-12-20T05:59:02;96863.19;;;0.62;86.78
16094;BME280;8151;47.824;12.092;2022-12-20T06:01:30;96861.88;;;0.69;86.62
16094;BME280;8151;47.824;12.092;2022-12-20T06:03:59;96873.47;;;0.77;86.71
16094;BME280;8151;47.824;12.092;2022-12-20T06:06:29;96869.56;;;0.85;86.93
16094;BME280;8151;47.824;12.092;2022-12-20T06:08:57;96872.66;;;0.91;87.10
16094;BME280;8151;47.824;12.092;2022-12-20T06:11:26;96875.78;;;0.96;86.98
16094;BME280;8151;47.824;12.092;2022-12-20T06:13:56;96879.78;;;1.02;87.32
16094;BME280;8151;47.824;12.092;2022-12-20T06:16:25;96873.34;;;1.08;87.50
16094;BME280;8151;47.824;12.092;2022-12-20T06:18:54;96866.00;;;1.14;86.83
16094;BME280;8151;47.824;12.092;2022-12-20T06:21:23;96868.28;;;1.19;87.16
16094;BME280;8151;47.824;12.092;2022-12-20T06:23:54;96864.38;;;1.26;87.55
16094;BME280;8151;47.824;12.092;2022-12-20T06:26:23;96854.66;;;1.28;87.20
16094;BME280;8151;47.824;12.092;2022-12-20T06:28:51;96845.63;;;1.34;87.49
16094;BME280;8151;47.824;12.092;2022-12-20T06:31:23;96842.63;;;1.40;87.29
16094;BME280;8151;47.824;12.092;2022-12-20T06:33:51;96856.16;;;1.45;87.58
16094;BME280;8151;47.824;12.092;2022-12-20T06:36:20;96864.72;;;1.47;87.54
16094;BME280;8151;47.824;12.092;2022-12-20T06:38:48;96864.63;;;1.49;87.82
16094;BME280;8151;47.824;12.092;2022-12-20T06:41:18;96858.69;;;1.47;87.57
16094;BME280;8151;47.824;12.092;2022-12-20T06:43:47;96847.34;;;1.48;87.90
16094;BME280;8151;47.824;12.092;2022-12-20T06:46:15;96844.72;;;1.48;87.77
16094;BME280;8151;47.824;12.092;2022-12-20T06:48:43;96844.50;;;1.51;87.89
16094;BME280;8151;47.824;12.092;2022-12-20T06:51:12;96851.00;;;1.58;87.96
16094;BME280;8151;47.824;12.092;2022-12-20T06:53:40;96856.94;;;1.60;87.98
16094;BME280;8151;47.824;12.092;2022-12-20T06:56:09;96845.47;;;1.63;87.98
16094;BME280;8151;47.824;12.092;2022-12-20T06:58:39;96844.34;;;1.67;87.71
16094;BME280;8151;47.824;12.092;2022-12-20T07:01:07;96841.44;;;1.71;88.13
16094;BME280;8151;47.824;12.092;2022-12-20T07:03:36;96838.50;;;1.76;87.95
16094;BME280;8151;47.824;12.092;2022-12-20T07:06:05;96833.00;;;1.81;87.73
16094;BME280;8151;47.824;12.092;2022-12-20T07:08:33;96852.00;;;1.83;87.78
16094;BME280;8151;47.824;12.092;2022-12-20T07:11:03;96834.38;;;1.86;87.88
16094;BME280;8151;47.824;12.092;2022-12-20T07:13:33;96825.59;;;1.87;88.01
16094;BME280;8151;47.824;12.092;2022-12-20T07:16:03;96828.09;;;1.89;88.05
16094;BME280;8151;47.824;12.092;2022-12-20T07:18:32;96826.84;;;1.94;88.11
16094;BME280;8151;47.824;12.092;2022-12-20T07:21:03;96838.94;;;1.95;87.86
16094;BME280;8151;47.824;12.092;2022-12-20T07:23:32;96844.06;;;1.97;87.89
16094;BME280;8151;47.824;12.092;2022-12-20T07:26:01;96836.25;;;1.97;88.13
16094;BME280;8151;47.824;12.092;2022-12-20T07:28:30;96836.16;;;1.99;87.97
16094;BME280;8151;47.824;12.092;2022-12-20T07:31:00;96832.72;;;1.98;87.90
16094;BME280;8151;47.824;12.092;2022-12-20T07:33:30;96823.94;;;1.99;88.23
16094;BME280;8151;47.824;12.092;2022-12-20T07:36:00;96829.97;;;2.00;88.12
16094;BME280;8151;47.824;12.092;2022-12-20T07:38:29;96820.91;;;2.05;88.18
16094;BME280;8151;47.824;12.092;2022-12-20T07:40:57;96819.16;;;2.06;87.86
16094;BME280;8151;47.824;12.092;2022-12-20T07:43:25;96813.69;;;2.09;88.12
16094;BME280;8151;47.824;12.092;2022-12-20T07:45:55;96815.28;;;2.11;87.99
16094;BME280;8151;47.824;12.092;2022-12-20T07:48:24;96817.66;;;2.14;87.95
16094;BME280;8151;47.824;12.092;2022-12-20T07:50:58;96811.63;;;2.14;88.12
16094;BME280;8151;47.824;12.092;2022-12-20T07:53:29;96817.56;;;2.16;88.03
16094;BME280;8151;47.824;12.092;2022-12-20T07:56:00;96832.50;;;2.14;88.06
16094;BME280;8151;47.824;12.092;2022-12-20T07:58:29;96827.28;;;2.14;88.17
16094;BME280;8151;47.824;12.092;2022-12-20T08:01:00;96831.88;;;2.10;88.24
16094;BME280;8151;47.824;12.092;2022-12-20T08:03:34;96835.41;;;2.09;88.28
16094;BME280;8151;47.824;12.092;2022-12-20T08:06:07;96843.47;;;2.06;88.12
16094;BME280;8151;47.824;12.092;2022-12-20T08:08:40;96847.84;;;2.06;87.97
16094;BME280;8151;47.824;12.092;2022-12-20T08:11:10;96843.56;;;2.05;88.00
16094;BME280;8151;47.824;12.092;2022-12-20T08:13:39;96841.78;;;2.05;88.05
16094;BME280;8151;47.824;12.092;2022-12-20T08:16:12;96839.06;;;2.07;88.24
16094;BME280;8151;47.824;12.092;2022-12-20T08:18:41;96843.13;;;2.11;88.07
16094;BME280;8151;47.824;12.092;2022-12-20T08:21:11;96838.66;;;2.13;87.87
16094;BME280;8151;47.824;12.092;2022-12-20T08:23:40;96840.31;;;2.14;87.68
16094;BME280;8151;47.824;12.092;2022-12-20T08:26:09;96843.66;;;2.16;87.80
16094;BME280;8151;47.824;12.092;2022-12-20T08:28:37;96844.50;;;2.16;87.97
16094;BME280;8151;47.824;12.092;2022-12-20T08:31:07;96839.38;;;2.15;87.93
16094;BME280;8151;47.824;12.092;2022-12-20T08:33:36;96843.03;;;2.12;87.68
16094;BME280;8151;47.824;12.092;2022-12-20T08:36:08;96832.69;;;2.11;87.85
16094;BME280;8151;47.824;12.092;2022-12-20T08:38:39;96830.09;;;2.11;87.84
16094;BME280;8151;47.824;12.092;2022-12-20T08:41:09;96837.81;;;2.12;87.88
16094;BME280;8151;47.824;12.092;2022-12-20T08:43:39;96833.31;;;2.14;87.70
16094;BME280;8151;47.824;12.092;2022-12-20T08:46:09;96820.06;;;2.17;87.63
16094;BME280;8151;47.824;12.092;2022-12-20T08:48:38;96820.56;;;2.23;87.60
16094;BME280;8151;47.824;12.092;2022-12-20T08:51:08;96826.22;;;2.29;87.42
16094;BME280;8151;47.824;12.092;2022-12-20T08:53:38;96823.09;;;2.37;87.53
16094;BME280;8151;47.824;12.092;2022-12-20T08:56:09;96821.59;;;2.46;87.27
16094;BME280;8151;47.824;12.092;2022-12-20T08:58:38;96815.84;;;2.53;87.38
16094;BME280;8151;47.824;12.092;2022-12-20T09:01:09;96822.31;;;2.61;87.38
16094;BME280;8151;47.824;12.092;2022-12-20T09:03:38;96821.06;;;2.66;87.32
16094;BME280;8151;47.824;12.092;2022-12-20T09:06:09;96820.63;;;2.72;87.15
16094;BME280;8151;47.824;12.092;2022-12-20T09:08:39;96819.47;;;2.76;86.93
16094;BME280;8151;47.824;12.092;2022-12-20T09:11:09;96816.53;;;2.81;87.17
16094;BME280;8151;47.824;12.092;2022-12-20T09:13:39;96819.75;;;2.85;87.35
16094;BME280;8151;47.824;12.092;2022-12-20T09:16:12;96817.84;;;2.87;87.24
16094;BME280;8151;47.824;12.092;2022-12-20T09:18:41;96815.38;;;2.85;87.35
16094;BME280;8151;47.824;12.092;2022-12-20T09:21:10;96824.25;;;2.83;87.27
16094;BME280;8151;47.824;12.092;2022-12-20T09:23:40;96824.47;;;2.80;87.48
16094;BME280;8151;47.824;12.092;2022-12-20T09:26:11;96827.19;;;2.78;87.46
16094;BME280;8151;47.824;12.092;2022-12-20T09:28:40;96829.81;;;2.78;87.44
16094;BME280;8151;47.824;12.092;2022-12-20T09:31:10;96816.63;;;2.80;87.42
16094;BME280;8151;47.824;12.092;2022-12-20T09:33:39;96811.31;;;2.81;87.60
16094;BME280;8151;47.824;12.092;2022-12-20T09:36:10;96806.56;;;2.86;87.42
16094;BME280;8151;47.824;12.092;2022-12-20T09:38:40;96799.34;;;2.90;87.35
16094;BME280;8151;47.824;12.092;2022-12-20T09:41:23;96801.63;;;2.94;87.35
16094;BME280;8151;47.824;12.092;2022-12-20T09:43:52;96804.75;;;3.00;87.46
16094;BME280;8151;47.824;12.092;2022-12-20T09:46:23;96792.19;;;3.05;87.21
16094;BME280;8151;47.824;12.092;2022-12-20T09:48:52;96797.91;;;3.10;86.95
16094;BME280;8151;47.824;12.092;2022-12-20T09:51:33;96794.25;;;3.12;87.07
16094;BME280;8151;47.824;12.092;2022-12-20T09:54:16;96791.28;;;3.17;86.89
16094;BME280;8151;47.824;12.092;2022-12-20T09:56:56;96791.66;;;3.24;86.86
16094;BME280;8151;47.824;12.092;2022-12-20T09:59:26;96782.53;;;3.29;86.57
16094;BME280;8151;47.824;12.092;2022-12-20T10:02:06;96776.88;;;3.35;86.64
16094;BME280;8151;47.824;12.092;2022-12-20T10:04:56;96774.53;;;3.44;86.64
16094;BME280;8151;47.824;12.092;2022-12-20T10:07:34;96764.53;;;3.49;86.61
16094;BME280;8151;47.824;12.092;2022-12-20T10:10:30;96764.09;;;3.55;86.50
16094;BME280;8151;47.824;12.092;2022-12-20T10:13:16;96755.06;;;3.59;86.30
16094;BME280;8151;47.824;12.092;2022-12-20T10:15:51;96754.09;;;3.60;86.52
16094;BME280;8151;47.824;12.092;2022-12-20T10:18:31;96751.59;;;3.59;86.72
16094;BME280;8151;47.824;12.092;2022-12-20T10:21:07;96745.53;;;3.58;87.01
16094;BME280;8151;47.824;12.092;2022-12-20T10:23:44;96748.97;;;3.59;86.59
16094;BME280;8151;47.824;12.092;2022-12-20T10:26:14;96745.44;;;3.60;86.78
16094;BME280;8151;47.824;12.092;2022-12-20T10:28:43;96735.69;;;3.62;86.63
16094;BME280;8151;47.824;12.092;2022-12-20T10:31:18;96742.44;;;3.64;86.71
16094;BME280;8151;47.824;12.092;2022-12-20T10:33:46;96733.56;;;3.67;86.73
16094;BME280;8151;47.824;12.092;2022-12-20T10:36:23;96728.06;;;3.70;86.64
16094;BME280;8151;47.824;12.092;2022-12-20T10:38:54;96722.97;;;3.68;86.29
16094;BME280;8151;47.824;12.092;2022-12-20T10:41:26;96725.81;;;3.65;86.19
16094;BME280;8151;47.824;12.092;2022-12-20T10:43:59;96723.31;;;3.64;86.58
16094;BME280;8151;47.824;12.092;2022-12-20T10:46:36;96722.50;;;3.63;86.52
16094;BME280;8151;47.824;12.092;2022-12-20T10:49:28;96717.75;;;3.68;86.23
16094;BME280;8151;47.824;12.092;2022-12-20T10:51:59;96729.41;;;3.75;86.46
16094;BME280;8151;47.824;12.092;2022-12-20T10:54:31;96717.63;;;3.81;86.01
16094;BME280;8151;47.824;12.092;2022-12-20T10:57:16;96711.91;;;3.87;86.43
16094;BME280;8151;47.824;12.092;2022-12-20T10:59:48;96705.63;;;3.90;86.05
16094;BME280;8151;47.824;12.092;2022-12-20T11:02:25;96704.56;;;3.92;86.18
16094;BME280;8151;47.824;12.092;2022-12-20T11:05:20;96700.75;;;3.97;85.71
16094;BME280;8151;47.824;12.092;2022-12-20T11:07:53;96691.94;;;3.98;86.18
16094;BME280;8151;47.824;12.092;2022-12-20T11:10:43;96687.28;;;4.01;85.93
16094;BME280;8151;47.824;12.092;2022-12-20T11:13:22;96683.84;;;4.01;85.36
16094;BME280;8151;47.824;12.092;2022-12-20T11:15:54;96678.59;;;4.01;85.72
16094;BME280;8151;47.824;12.092;2022-12-20T11:18:37;96668.25;;;3.99;85.53
16094;BME280;8151;47.824;12.092;2022-12-20T11:21:15;96672.06;;;3.95;85.70
16094;BME280;8151;47.824;12.092;2022-12-20T11:23:59;96674.78;;;3.93;85.63
16094;BME280;8151;47.824;12.092;2022-12-20T11:26:39;96674.94;;;3.92;86.08
16094;BME280;8151;47.824;12.092;2022-12-20T11:29:26;96675.88;;;3.91;85.60
16094;BME280;8151;47.824;12.092;2022-12-20T11:32:06;96666.59;;;3.87;85.75
16094;BME280;8151;47.824;12.092;2022-12-20T11:34:46;96656.34;;;3.84;85.64
16094;BME280;8151;47.824;12.092;2022-12-20T11:37:19;96651.09;;;3.84;85.99
16094;BME280;8151;47.824;12.092;2022-12-20T11:39:57;96642.53;;;3.82;85.75
16094;BME280;8151;47.824;12.092;2022-12-20T11:42:41;96640.41;;;3.75;85.60
16094;BME280;8151;47.824;12.092;2022-12-20T11:45:22;96631.41;;;3.68;85.79
16094;BME280;8151;47.824;12.092;2022-12-20T11:50:53;96628.28;;;3.63;85.59
16094;BME280;8151;47.824;12.092;2022-12-20T11:53:31;96625.78;;;3.62;85.71
16094;BME280;8151;47.824;12.092;2022-12-20T11:56:07;96624.00;;;3.62;86.03
16094;BME280;8151;47.824;12.092;2022-12-20T11:58:47;96629.22;;;3.62;85.66
16094;BME280;8151;47.824;12.092;2022-12-20T12:01:20;96620.44;;;3.63;86.03
16094;BME280;8151;47.824;12.092;2022-12-20T12:04:02;96615.09;;;3.65;85.68
16094;BME280;8151;47.824;12.092;2022-12-20T12:06:34;96621.03;;;3.67;85.95
16094;BME280;8151;47.824;12.092;2022-12-20T12:09:14;96610.47;;;3.68;85.96
16094;BME280;8151;47.824;12.092;2022-12-20T12:11:46;96609.38;;;3.71;85.81
16094;BME280;8151;47.824;12.092;2022-12-20T12:14:44;96609.13;;;3.74;85.64
16094;BME280;8151;47.824;12.092;2022-12-20T12:17:23;96602.13;;;3.74;85.68
16094;BME280;8151;47.824;12.092;2022-12-20T12:19:55;96602.13;;;3.74;85.69
16094;BME280;8151;47.824;12.092;2022-12-20T12:22:32;96596.91;;;3.74;85.76
16094;BME280;8151;47.824;12.092;2022-12-20T12:25:08;96593.19;;;3.77;86.08
16094;BME280;8151;47.824;12.092;2022-12-20T12:27:40;96590.56;;;3.77;86.17
16094;BME280;8151;47.824;12.092;2022-12-20T12:30:12;96592.25;;;3.78;85.98
16094;BME280;8151;47.824;12.092;2022-12-20T12:32:46;96581.78;;;3.78;85.63
16094;BME280;8151;47.824;12.092;2022-12-20T12:35:35;96582.72;;;3.77;86.05
16094;BME280;8151;47.824;12.092;2022-12-20T12:38:28;96577.88;;;3.72;85.61
16094;BME280;8151;47.824;12.092;2022-12-20T12:41:41;96572.84;;;3.69;85.93
16094;BME280;8151;47.824;12.092;2022-12-20T12:44:35;96568.13;;;3.63;86.25
16094;BME280;8151;47.824;12.092;2022-12-20T12:47:12;96564.06;;;3.59;85.95
16094;BME280;8151;47.824;12.092;2022-12-20T12:49:46;96563.09;;;3.60;86.30
16094;BME280;8151;47.824;12.092;2022-12-20T12:52:40;96560.50;;;3.60;86.06
16094;BME280;8151;47.824;12.092;2022-12-20T12:55:39;96559.56;;;3.61;85.69
16094;BME280;8151;47.824;12.092;2022-12-20T12:58:40;96560.50;;;3.60;85.78
16094;BME280;8151;47.824;12.092;2022-12-20T13:04:26;96567.28;;;3.63;86.02
16094;BME280;8151;47.824;12.092;2022-12-20T13:07:26;96563.69;;;3.64;85.51
16094;BME280;8151;47.824;12.092;2022-12-20T13:09:57;96562.75;;;3.65;86.15
16094;BME280;8151;47.824;12.092;2022-12-20T13:31:30;96569.19;;;3.61;87.10
16094;BME280;8151;47.824;12.092;2022-12-20T13:34:00;96573.34;;;3.63;87.01
16094;BME280;8151;47.824;12.092;2022-12-20T13:36:33;96579.06;;;3.68;87.19
16094;BME280;8151;47.824;12.092;2022-12-20T13:39:30;96565.34;;;3.87;86.89
16094;BME280;8151;47.824;12.092;2022-12-20T13:42:14;96556.38;;;4.01;86.26
16094;BME280;8151;47.824;12.092;2022-12-20T13:44:44;96559.72;;;4.03;85.71
16094;BME280;8151;47.824;12.092;2022-12-20T13:47:35;96565.44;;;3.97;86.11
16094;BME280;8151;47.824;12.092;2022-12-20T13:52:59;96557.47;;;3.87;86.03
16094;BME280;8151;47.824;12.092;2022-12-20T13:55:36;96546.06;;;3.88;86.11
16094;BME280;8151;47.824;12.092;2022-12-20T13:58:08;96547.09;;;3.97;86.32
16094;BME280;8151;47.824;12.092;2022-12-20T14:00:38;96551.59;;;4.18;85.68
16094;BME280;8151;47.824;12.092;2022-12-20T14:03:18;96540.44;;;4.37;85.59
16094;BME280;8151;47.824;12.092;2022-12-20T14:05:47;96540.53;;;4.46;85.28